Time;durP1;ratioP1;P1;durP2;ratioP2;P2;SDS_P1;SDS_P2;PMS_P1;PMS_P2;Temp;Humidity;BMP_temperature;BMP_pressure;BME280_temperature;BME280_humidity;BME280_pressure;Samples;Min_cycle;Max_cycle;Signal;HPM_P1;HPM_P2
2023/05/01 00:01:57;;;;;;;7.45;3.80;;;;;;;;;;5135795;27;20551;-72
2023/05/01 00:04:23;;;;;;;6.40;3.30;;;;;;;;;;5130741;27;20050;-73
2023/05/01 00:06:49;;;;;;;7.25;3.70;;;;;;;;;;5135735;27;20047;-74
2023/05/01 00:09:15;;;;;;;6.88;3.47;;;;;;;;;;5135926;27;20095;-74
2023/05/01 00:11:41;;;;;;;6.63;3.60;;;;;;;;;;5153656;27;20098;-74
2023/05/01 00:14:07;;;;;;;7.57;3.90;;;;;;;;;;5135244;27;20071;-74
2023/05/01 00:16:34;;;;;;;7.10;3.90;;;;;;;;;;5153635;27;20034;-72
2023/05/01 00:19:02;;;;;;;7.32;3.85;;;;;;;;;;5135112;27;20049;-72
2023/05/01 00:21:28;;;;;;;9.48;4.43;;;;;;;;;;5116747;28;20122;-72
2023/05/01 00:23:54;;;;;;;6.63;4.45;;;;;;;;;;5132906;27;20058;-74
2023/05/01 00:26:20;;;;;;;8.07;4.60;;;;;;;;;;5132185;27;20039;-74
2023/05/01 00:28:46;;;;;;;6.32;3.50;;;;;;;;;;5146592;27;20383;-74
2023/05/01 00:31:12;;;;;;;11.65;5.10;;;;;;;;;;5097194;28;20055;-74
2023/05/01 00:33:39;;;;;;;7.78;4.28;;;;;;;;;;5134436;27;20039;-71
2023/05/01 00:36:05;;;;;;;7.68;4.38;;;;;;;;;;5135004;27;20057;-74
2023/05/01 00:38:31;;;;;;;9.13;4.45;;;;;;;;;;5137410;27;20038;-74
2023/05/01 00:40:57;;;;;;;8.25;4.47;;;;;;;;;;5127794;27;20499;-74
2023/05/01 00:43:23;;;;;;;9.65;5.30;;;;;;;;;;5156909;27;20054;-74
2023/05/01 00:45:50;;;;;;;10.73;5.10;;;;;;;;;;5156941;27;20088;-74
2023/05/01 00:48:16;;;;;;;9.05;5.10;;;;;;;;;;5138378;27;20536;-74
2023/05/01 00:50:43;;;;;;;12.38;5.53;;;;;;;;;;5139096;27;20486;-74
2023/05/01 00:53:10;;;;;;;12.63;5.22;;;;;;;;;;5156798;27;20035;-72
2023/05/01 00:55:36;;;;;;;9.90;4.97;;;;;;;;;;5138855;27;20099;-72
2023/05/01 00:58:02;;;;;;;9.40;4.97;;;;;;;;;;5155168;27;20037;-71
2023/05/01 01:00:29;;;;;;;9.23;5.22;;;;;;;;;;5129843;27;20092;-71
2023/05/01 01:02:55;;;;;;;9.68;5.45;;;;;;;;;;5156434;27;20045;-72
2023/05/01 01:05:24;;;;;;;10.02;5.43;;;;;;;;;;5156748;27;20047;-73
2023/05/01 01:08:13;;;;;;;9.25;5.47;;;;;;;;;;5123551;27;20035;-74
2023/05/01 01:10:46;;;;;;;10.15;5.65;;;;;;;;;;5121940;27;20549;-74
2023/05/01 01:13:18;;;;;;;10.52;5.80;;;;;;;;;;5136590;27;20125;-72
2023/05/01 01:15:50;;;;;;;12.13;5.88;;;;;;;;;;5138406;27;20043;-72
2023/05/01 01:18:20;;;;;;;9.50;6.00;;;;;;;;;;5123417;27;20513;-71
2023/05/01 01:20:54;;;;;;;12.20;6.10;;;;;;;;;;5120945;27;20038;-71
2023/05/01 01:23:20;;;;;;;10.68;5.82;;;;;;;;;;5156136;27;20031;-73
2023/05/01 01:25:49;;;;;;;12.40;6.10;;;;;;;;;;5137727;27;20034;-71
2023/05/01 01:28:18;;;;;;;12.55;6.70;;;;;;;;;;5137545;27;20030;-71
2023/05/01 01:31:03;;;;;;;10.77;5.95;;;;;;;;;;5156399;27;20143;-71
2023/05/01 01:33:33;;;;;;;11.75;6.20;;;;;;;;;;5155920;27;20113;-74
2023/05/01 01:36:02;;;;;;;13.48;6.22;;;;;;;;;;5134182;27;20121;-74
2023/05/01 01:38:35;;;;;;;13.75;5.60;;;;;;;;;;5133664;27;20111;-71
2023/05/01 01:41:06;;;;;;;12.98;6.32;;;;;;;;;;5137778;27;20138;-71
2023/05/01 01:43:38;;;;;;;11.05;6.00;;;;;;;;;;5137399;27;20135;-74
2023/05/01 01:46:06;;;;;;;11.68;5.93;;;;;;;;;;5155819;27;20392;-74
2023/05/01 01:48:34;;;;;;;11.43;6.40;;;;;;;;;;5100283;27;20039;-74
2023/05/01 01:51:01;;;;;;;10.57;5.82;;;;;;;;;;5137625;27;20094;-72
2023/05/01 01:53:29;;;;;;;12.60;6.03;;;;;;;;;;5155984;27;20579;-71
2023/05/01 01:55:56;;;;;;;9.70;5.93;;;;;;;;;;5131285;27;20035;-71
2023/05/01 01:58:25;;;;;;;12.05;6.55;;;;;;;;;;5128661;27;20414;-71
2023/05/01 02:00:52;;;;;;;10.82;6.05;;;;;;;;;;5117316;27;20045;-71
2023/05/01 02:03:19;;;;;;;11.07;6.07;;;;;;;;;;5126613;27;20030;-74
2023/05/01 02:05:46;;;;;;;9.63;5.97;;;;;;;;;;5154761;27;20111;-74
2023/05/01 02:08:13;;;;;;;11.05;5.95;;;;;;;;;;5154762;27;20429;-74
2023/05/01 02:10:40;;;;;;;12.13;6.13;;;;;;;;;;5155553;27;20039;-72
2023/05/01 02:13:07;;;;;;;13.07;6.03;;;;;;;;;;5136853;27;20027;-72
2023/05/01 02:15:34;;;;;;;12.85;5.90;;;;;;;;;;5124350;27;20050;-74
2023/05/01 02:18:03;;;;;;;12.32;6.07;;;;;;;;;;5153744;27;20042;-74
2023/05/01 02:20:30;;;;;;;11.27;5.78;;;;;;;;;;5136823;27;20063;-71
2023/05/01 02:22:57;;;;;;;13.27;6.07;;;;;;;;;;5155008;27;20038;-74
2023/05/01 02:25:23;;;;;;;9.70;6.03;;;;;;;;;;5155472;27;20110;-74
2023/05/01 02:27:55;;;;;;;9.27;5.68;;;;;;;;;;5154888;27;20035;-74
2023/05/01 02:30:21;;;;;;;13.07;6.00;;;;;;;;;;5136008;27;20081;-71
2023/05/01 02:32:47;;;;;;;9.77;5.78;;;;;;;;;;5119475;27;20046;-71
2023/05/01 02:35:15;;;;;;;9.23;6.05;;;;;;;;;;5136211;27;20050;-74
2023/05/01 02:37:42;;;;;;;9.85;5.65;;;;;;;;;;5119325;27;20043;-74
2023/05/01 02:40:11;;;;;;;14.30;6.28;;;;;;;;;;5135974;27;20045;-74
2023/05/01 02:42:37;;;;;;;10.52;5.65;;;;;;;;;;5155461;27;20042;-71
2023/05/01 02:45:05;;;;;;;12.85;5.95;;;;;;;;;;5154575;27;20035;-71
2023/05/01 02:47:33;;;;;;;9.63;6.03;;;;;;;;;;5126256;27;20043;-71
2023/05/01 02:49:59;;;;;;;10.38;6.25;;;;;;;;;;5114844;27;20117;-70
2023/05/01 02:52:26;;;;;;;10.90;5.90;;;;;;;;;;5118861;27;20042;-71
2023/05/01 02:54:52;;;;;;;9.25;5.70;;;;;;;;;;5119114;27;20113;-71
2023/05/01 02:57:19;;;;;;;10.85;5.93;;;;;;;;;;5118660;27;20083;-74
2023/05/01 02:59:45;;;;;;;10.68;5.97;;;;;;;;;;5115740;27;20049;-71
2023/05/01 03:02:11;;;;;;;10.20;5.80;;;;;;;;;;5133563;27;20455;-72
2023/05/01 03:04:37;;;;;;;8.77;5.63;;;;;;;;;;5125319;27;20092;-74
2023/05/01 03:07:03;;;;;;;13.13;6.03;;;;;;;;;;5137789;27;20039;-74
2023/05/01 03:09:30;;;;;;;11.32;6.30;;;;;;;;;;5134093;27;20030;-74
2023/05/01 03:11:57;;;;;;;12.07;5.68;;;;;;;;;;5135808;27;20049;-74
2023/05/01 03:14:23;;;;;;;9.63;5.60;;;;;;;;;;5135338;27;20069;-74
2023/05/01 03:16:49;;;;;;;10.00;5.68;;;;;;;;;;5126668;27;20103;-74
2023/05/01 03:19:15;;;;;;;8.88;5.28;;;;;;;;;;5130345;27;20049;-74
2023/05/01 03:21:41;;;;;;;11.13;5.88;;;;;;;;;;5154348;27;20127;-74
2023/05/01 03:24:07;;;;;;;15.48;6.20;;;;;;;;;;5135761;27;20049;-74
2023/05/01 03:26:33;;;;;;;13.00;6.05;;;;;;;;;;5131137;27;20050;-71
2023/05/01 03:28:59;;;;;;;12.02;6.10;;;;;;;;;;5145280;27;20074;-74
2023/05/01 03:31:25;;;;;;;9.70;5.30;;;;;;;;;;5153462;27;20047;-72
2023/05/01 03:33:52;;;;;;;12.98;6.00;;;;;;;;;;5135769;27;20087;-72
2023/05/01 03:36:18;;;;;;;12.07;5.13;;;;;;;;;;5153849;27;20043;-72
2023/05/01 03:38:46;;;;;;;11.45;5.82;;;;;;;;;;5154133;27;20035;-71
2023/05/01 03:41:12;;;;;;;10.77;5.25;;;;;;;;;;5154238;27;20129;-72
2023/05/01 03:43:38;;;;;;;11.75;6.00;;;;;;;;;;5118275;27;20355;-71
2023/05/01 03:46:04;;;;;;;10.57;5.95;;;;;;;;;;5153954;27;20071;-71
2023/05/01 03:48:30;;;;;;;13.80;5.47;;;;;;;;;;5153811;27;20039;-71
2023/05/01 03:50:57;;;;;;;12.50;6.03;;;;;;;;;;5135729;27;20106;-71
2023/05/01 03:53:23;;;;;;;10.20;5.90;;;;;;;;;;5153654;27;20070;-72
2023/05/01 03:55:49;;;;;;;12.57;5.80;;;;;;;;;;5153838;27;20432;-71
2023/05/01 03:58:15;;;;;;;11.20;5.53;;;;;;;;;;5118251;27;20049;-71
2023/05/01 04:00:41;;;;;;;13.20;5.13;;;;;;;;;;5152786;27;20394;-71
2023/05/01 04:03:07;;;;;;;10.70;6.00;;;;;;;;;;5129542;27;20126;-71
2023/05/01 04:05:34;;;;;;;11.13;5.38;;;;;;;;;;5108847;27;20038;-72
2023/05/01 04:08:00;;;;;;;12.70;5.82;;;;;;;;;;5131342;28;20043;-71
2023/05/01 04:10:26;;;;;;;12.13;5.93;;;;;;;;;;5110272;27;20046;-71
2023/05/01 04:12:52;;;;;;;10.13;5.68;;;;;;;;;;5139914;27;20418;-71
2023/05/01 04:15:18;;;;;;;11.98;5.93;;;;;;;;;;5138832;27;20087;-74
2023/05/01 04:17:45;;;;;;;13.95;6.22;;;;;;;;;;5139328;27;20121;-73
2023/05/01 04:20:11;;;;;;;11.70;6.10;;;;;;;;;;5139273;27;20042;-74
2023/05/01 04:22:37;;;;;;;12.40;5.50;;;;;;;;;;5157383;27;20034;-74
2023/05/01 04:25:07;;;;;;;11.60;5.55;;;;;;;;;;5150536;27;20122;-74
2023/05/01 04:27:33;;;;;;;10.88;5.93;;;;;;;;;;5132200;27;20050;-74
2023/05/01 04:29:59;;;;;;;13.25;5.88;;;;;;;;;;5138979;27;20505;-74
2023/05/01 04:32:26;;;;;;;14.43;5.78;;;;;;;;;;5157112;27;20437;-71
2023/05/01 04:34:52;;;;;;;11.35;5.60;;;;;;;;;;5138669;27;20106;-74
2023/05/01 04:37:18;;;;;;;13.35;5.80;;;;;;;;;;5122102;27;20479;-74
2023/05/01 04:39:44;;;;;;;11.32;5.72;;;;;;;;;;5157018;27;20038;-74
2023/05/01 04:42:10;;;;;;;9.40;5.25;;;;;;;;;;5114088;27;20054;-71
2023/05/01 04:44:36;;;;;;;13.30;5.90;;;;;;;;;;5115015;27;20052;-72
2023/05/01 04:47:03;;;;;;;13.95;6.05;;;;;;;;;;5133057;27;20149;-73
2023/05/01 04:49:29;;;;;;;10.75;5.90;;;;;;;;;;5130101;27;20042;-73
2023/05/01 04:51:56;;;;;;;11.00;6.32;;;;;;;;;;5157787;27;20114;-74
2023/05/01 04:54:22;;;;;;;10.30;5.68;;;;;;;;;;5157047;27;20499;-71
2023/05/01 04:56:49;;;;;;;10.95;5.40;;;;;;;;;;5157197;27;20034;-74
2023/05/01 04:59:16;;;;;;;13.30;5.53;;;;;;;;;;5157197;27;20043;-73
2023/05/01 05:01:42;;;;;;;10.20;5.43;;;;;;;;;;5129012;27;20039;-73
2023/05/01 05:04:08;;;;;;;10.05;5.65;;;;;;;;;;5138202;27;20078;-71
2023/05/01 05:06:34;;;;;;;9.93;5.50;;;;;;;;;;5120752;27;20035;-73
2023/05/01 05:09:00;;;;;;;10.75;5.68;;;;;;;;;;5138251;27;20046;-74
2023/05/01 05:11:26;;;;;;;11.93;5.55;;;;;;;;;;5138505;27;20026;-72
2023/05/01 05:13:52;;;;;;;11.95;5.53;;;;;;;;;;5157334;27;20030;-71
2023/05/01 05:16:18;;;;;;;14.20;5.53;;;;;;;;;;5123545;27;20034;-73
2023/05/01 05:18:44;;;;;;;11.63;5.63;;;;;;;;;;5120987;27;20118;-71
2023/05/01 05:21:10;;;;;;;10.18;4.93;;;;;;;;;;5137748;27;20054;-71
2023/05/01 05:23:37;;;;;;;10.20;5.13;;;;;;;;;;5147036;27;20031;-71
2023/05/01 05:26:03;;;;;;;11.30;5.05;;;;;;;;;;5150989;27;20038;-72
2023/05/01 05:28:30;;;;;;;14.15;5.38;;;;;;;;;;5156389;27;20122;-71
2023/05/01 05:30:56;;;;;;;10.13;5.45;;;;;;;;;;5156287;27;20066;-71
2023/05/01 05:33:26;;;;;;;11.32;5.18;;;;;;;;;;5156282;27;20043;-74
2023/05/01 05:35:52;;;;;;;11.73;5.57;;;;;;;;;;5137525;27;20089;-72
2023/05/01 05:38:19;;;;;;;9.38;5.30;;;;;;;;;;5120921;27;20387;-71
2023/05/01 05:40:45;;;;;;;9.52;5.20;;;;;;;;;;5137735;27;20038;-72
2023/05/01 05:43:11;;;;;;;12.05;5.63;;;;;;;;;;5137849;27;20049;-71
2023/05/01 05:45:37;;;;;;;12.57;5.53;;;;;;;;;;5137952;27;20383;-71
2023/05/01 05:48:03;;;;;;;11.25;5.38;;;;;;;;;;5137989;27;20039;-71
2023/05/01 05:50:30;;;;;;;10.68;4.82;;;;;;;;;;5150794;27;20050;-71
2023/05/01 05:52:56;;;;;;;11.68;5.40;;;;;;;;;;5129912;27;20086;-72
2023/05/01 05:55:22;;;;;;;10.98;5.93;;;;;;;;;;5156519;27;20031;-74
2023/05/01 05:57:48;;;;;;;12.65;5.30;;;;;;;;;;5137416;27;20066;-73
2023/05/01 06:00:14;;;;;;;8.02;4.90;;;;;;;;;;5138629;27;20502;-74
2023/05/01 06:02:40;;;;;;;10.23;4.93;;;;;;;;;;5137809;27;20043;-73
2023/05/01 06:05:07;;;;;;;12.90;5.88;;;;;;;;;;5137524;27;20514;-74
2023/05/01 06:07:33;;;;;;;11.15;5.28;;;;;;;;;;5155684;27;20103;-74
2023/05/01 06:10:03;;;;;;;12.10;4.93;;;;;;;;;;5157661;27;20038;-74
2023/05/01 06:12:30;;;;;;;7.93;4.68;;;;;;;;;;5139244;27;20035;-74
2023/05/01 06:14:56;;;;;;;8.43;5.10;;;;;;;;;;5137840;27;20077;-74
2023/05/01 06:17:23;;;;;;;7.38;5.00;;;;;;;;;;5137166;27;20039;-73
2023/05/01 06:19:51;;;;;;;10.60;5.13;;;;;;;;;;5122750;27;20035;-73
2023/05/01 06:22:17;;;;;;;7.22;4.55;;;;;;;;;;5160575;27;20399;-74
2023/05/01 06:24:44;;;;;;;9.88;4.95;;;;;;;;;;5151205;27;20543;-74
2023/05/01 06:27:10;;;;;;;11.88;5.40;;;;;;;;;;5145283;27;20057;-73
2023/05/01 06:29:36;;;;;;;7.90;5.30;;;;;;;;;;5136653;27;20108;-72
2023/05/01 06:32:03;;;;;;;10.75;4.95;;;;;;;;;;5146698;27;20385;-71
2023/05/01 06:34:30;;;;;;;10.52;4.80;;;;;;;;;;5149671;27;20479;-71
2023/05/01 06:36:56;;;;;;;10.82;4.95;;;;;;;;;;5114893;27;20125;-72
2023/05/01 06:39:22;;;;;;;8.52;5.13;;;;;;;;;;5147347;27;20050;-74
2023/05/01 06:41:48;;;;;;;11.43;5.15;;;;;;;;;;5136107;27;20043;-74
2023/05/01 06:44:15;;;;;;;10.00;4.63;;;;;;;;;;5119551;27;20042;-74
2023/05/01 06:46:41;;;;;;;9.32;5.15;;;;;;;;;;5136458;27;20042;-72
2023/05/01 06:49:07;;;;;;;7.47;4.93;;;;;;;;;;5136377;27;20045;-73
2023/05/01 06:51:33;;;;;;;8.18;4.80;;;;;;;;;;5154998;27;20510;-72
2023/05/01 06:53:59;;;;;;;10.27;4.97;;;;;;;;;;5129238;27;20095;-74
2023/05/01 06:56:25;;;;;;;9.18;5.00;;;;;;;;;;5147952;27;20030;-72
2023/05/01 06:58:51;;;;;;;9.38;4.70;;;;;;;;;;5118992;27;20552;-74
2023/05/01 07:01:18;;;;;;;8.30;5.18;;;;;;;;;;5154822;27;20095;-71
2023/05/01 07:03:44;;;;;;;11.63;5.25;;;;;;;;;;5154662;27;20030;-74
2023/05/01 07:06:10;;;;;;;9.82;4.88;;;;;;;;;;5136484;27;20482;-71
2023/05/01 07:08:36;;;;;;;11.15;5.18;;;;;;;;;;5154556;27;20043;-72
2023/05/01 07:11:02;;;;;;;11.20;4.78;;;;;;;;;;5139563;27;20087;-73
2023/05/01 07:13:28;;;;;;;8.48;4.63;;;;;;;;;;5136577;27;20439;-73
2023/05/01 07:15:54;;;;;;;9.35;5.03;;;;;;;;;;5135897;27;20394;-73
2023/05/01 07:18:20;;;;;;;11.18;4.70;;;;;;;;;;5119411;27;20046;-74
2023/05/01 07:20:48;;;;;;;9.48;4.95;;;;;;;;;;5153995;27;20050;-75
2023/05/01 07:23:14;;;;;;;7.85;4.32;;;;;;;;;;5113112;27;20052;-73
2023/05/01 07:25:41;;;;;;;10.23;4.80;;;;;;;;;;5127566;27;20395;-73
2023/05/01 07:28:07;;;;;;;10.70;4.65;;;;;;;;;;5154238;27;20066;-74
2023/05/01 07:30:35;;;;;;;8.15;4.60;;;;;;;;;;5154031;27;20041;-75
2023/05/01 07:33:01;;;;;;;8.82;4.10;;;;;;;;;;5153874;27;20051;-74
2023/05/01 07:35:27;;;;;;;7.90;4.00;;;;;;;;;;5154483;27;20491;-76
2023/05/01 07:37:53;;;;;;;9.75;4.45;;;;;;;;;;5134894;27;20038;-73
2023/05/01 07:40:20;;;;;;;10.43;4.40;;;;;;;;;;5140180;27;20505;-74
2023/05/01 07:42:46;;;;;;;6.45;4.07;;;;;;;;;;5135376;27;20038;-75
2023/05/01 07:45:12;;;;;;;8.82;4.05;;;;;;;;;;5154129;27;20111;-73
2023/05/01 07:47:38;;;;;;;7.88;4.10;;;;;;;;;;5156130;27;20117;-73
2023/05/01 07:50:04;;;;;;;6.85;4.18;;;;;;;;;;5155920;27;20517;-76
2023/05/01 07:52:31;;;;;;;9.18;4.22;;;;;;;;;;5128366;27;20046;-75
2023/05/01 07:54:57;;;;;;;6.28;3.83;;;;;;;;;;5139503;27;20031;-74
2023/05/01 07:57:23;;;;;;;9.25;4.28;;;;;;;;;;5139934;27;20045;-74
2023/05/01 07:59:54;;;;;;;9.45;4.90;;;;;;;;;;5139625;27;20053;-73
2023/05/01 08:02:20;;;;;;;8.60;4.20;;;;;;;;;;5158014;27;20110;-74
2023/05/01 08:04:47;;;;;;;8.10;3.88;;;;;;;;;;5139903;27;20432;-72
2023/05/01 08:07:13;;;;;;;8.30;4.13;;;;;;;;;;5125263;27;20100;-73
2023/05/01 08:09:39;;;;;;;10.25;4.30;;;;;;;;;;5124834;27;20162;-74
2023/05/01 08:12:06;;;;;;;8.10;4.50;;;;;;;;;;5139009;27;20383;-74
2023/05/01 08:14:32;;;;;;;9.30;4.50;;;;;;;;;;5135352;27;20066;-73
2023/05/01 08:16:58;;;;;;;7.68;3.92;;;;;;;;;;5147459;27;20035;-74
2023/05/01 08:19:25;;;;;;;10.05;4.63;;;;;;;;;;5139050;27;20049;-74
2023/05/01 08:21:52;;;;;;;6.80;3.97;;;;;;;;;;5139041;27;20554;-75
2023/05/01 08:24:18;;;;;;;8.40;3.72;;;;;;;;;;5157849;27;20039;-74
2023/05/01 08:26:44;;;;;;;7.03;3.67;;;;;;;;;;5122004;27;20043;-74
2023/05/01 08:29:10;;;;;;;9.52;4.03;;;;;;;;;;5157096;27;20543;-74
2023/05/01 08:31:38;;;;;;;7.30;3.63;;;;;;;;;;5157401;27;20064;-73
2023/05/01 08:34:04;;;;;;;8.63;3.30;;;;;;;;;;5157206;27;20125;-73
2023/05/01 08:36:31;;;;;;;7.60;3.30;;;;;;;;;;5107130;27;20042;-73
2023/05/01 08:38:57;;;;;;;6.43;3.13;;;;;;;;;;5157094;27;20042;-73
2023/05/01 08:41:25;;;;;;;6.60;3.42;;;;;;;;;;5136571;27;20364;-74
2023/05/01 08:43:51;;;;;;;7.43;3.58;;;;;;;;;;5138791;27;20563;-74
2023/05/01 08:46:21;;;;;;;8.20;3.00;;;;;;;;;;5138758;27;20034;-73
2023/05/01 08:48:48;;;;;;;9.32;3.67;;;;;;;;;;5124621;27;20065;-74
2023/05/01 08:51:18;;;;;;;6.28;2.63;;;;;;;;;;5157030;27;20038;-74
2023/05/01 08:53:46;;;;;;;6.65;2.80;;;;;;;;;;5138473;27;20083;-74
2023/05/01 08:56:14;;;;;;;8.23;2.80;;;;;;;;;;5138612;27;20050;-74
2023/05/01 08:58:40;;;;;;;6.47;2.80;;;;;;;;;;5137493;27;20026;-74
2023/05/01 09:01:07;;;;;;;4.13;2.60;;;;;;;;;;5138649;27;20511;-75
2023/05/01 09:03:33;;;;;;;5.50;3.08;;;;;;;;;;5138591;27;20095;-74
2023/05/01 09:05:59;;;;;;;9.25;3.38;;;;;;;;;;5138136;27;20183;-74
2023/05/01 09:08:26;;;;;;;8.82;3.10;;;;;;;;;;5156701;27;20070;-75
2023/05/01 09:10:53;;;;;;;5.90;2.90;;;;;;;;;;5138373;27;20047;-75
2023/05/01 09:13:19;;;;;;;5.70;2.67;;;;;;;;;;5157185;27;20406;-74
2023/05/01 09:15:46;;;;;;;6.55;2.95;;;;;;;;;;5138388;27;20038;-74
2023/05/01 09:18:12;;;;;;;6.88;2.83;;;;;;;;;;5156659;27;20087;-74
2023/05/01 09:20:38;;;;;;;6.28;2.83;;;;;;;;;;5117698;27;20080;-75
2023/05/01 09:23:05;;;;;;;5.45;2.80;;;;;;;;;;5140136;27;20118;-72
2023/05/01 09:25:31;;;;;;;6.68;2.55;;;;;;;;;;5156535;27;20043;-72
2023/05/01 09:27:57;;;;;;;6.75;2.80;;;;;;;;;;5156337;27;20049;-72
2023/05/01 09:30:30;;;;;;;4.60;2.67;;;;;;;;;;5137829;27;20038;-72
2023/05/01 09:33:05;;;;;;;7.20;2.80;;;;;;;;;;5137335;27;20578;-72
2023/05/01 09:35:32;;;;;;;6.72;3.20;;;;;;;;;;5156566;27;20074;-72
2023/05/01 09:37:59;;;;;;;4.32;2.45;;;;;;;;;;5120105;27;20038;-72
2023/05/01 09:40:28;;;;;;;6.65;2.92;;;;;;;;;;5137816;27;20027;-72
2023/05/01 09:42:57;;;;;;;9.05;3.10;;;;;;;;;;5156173;27;20070;-72
2023/05/01 09:45:25;;;;;;;6.00;2.63;;;;;;;;;;5102855;27;20070;-73
2023/05/01 09:47:51;;;;;;;5.03;2.38;;;;;;;;;;5129648;27;20039;-73
2023/05/01 09:50:31;;;;;;;5.43;2.20;;;;;;;;;;5137098;27;20057;-73
2023/05/01 09:52:57;;;;;;;6.00;2.00;;;;;;;;;;5137700;27;20177;-74
2023/05/01 09:55:23;;;;;;;4.75;2.28;;;;;;;;;;5105993;27;20123;-74
2023/05/01 09:57:49;;;;;;;6.20;2.78;;;;;;;;;;5155882;27;20039;-74
2023/05/01 10:00:17;;;;;;;6.32;2.63;;;;;;;;;;5138459;27;20042;-74
2023/05/01 10:02:44;;;;;;;7.18;2.35;;;;;;;;;;5125471;27;20049;-74
2023/05/01 10:05:11;;;;;;;4.25;2.20;;;;;;;;;;5155421;27;20046;-74
2023/05/01 10:07:37;;;;;;;5.25;2.35;;;;;;;;;;5136875;27;20042;-74
2023/05/01 10:10:16;;;;;;;7.72;2.33;;;;;;;;;;5155138;27;20053;-74
2023/05/01 10:12:42;;;;;;;7.00;2.92;;;;;;;;;;5105512;27;20026;-76
2023/05/01 10:15:09;;;;;;;5.30;1.80;;;;;;;;;;5099459;27;20045;-75
2023/05/01 10:17:36;;;;;;;3.17;2.00;;;;;;;;;;5131737;27;20041;-73
2023/05/01 10:20:02;;;;;;;8.35;2.13;;;;;;;;;;5136309;27;20042;-74
2023/05/01 10:22:28;;;;;;;4.25;1.48;;;;;;;;;;5155252;27;20031;-74
2023/05/01 10:24:54;;;;;;;5.28;1.85;;;;;;;;;;5136572;27;20038;-74
2023/05/01 10:27:21;;;;;;;4.78;2.00;;;;;;;;;;5136388;27;20091;-73
2023/05/01 10:29:48;;;;;;;4.10;2.20;;;;;;;;;;5136505;27;20031;-74
2023/05/01 10:32:14;;;;;;;6.78;2.60;;;;;;;;;;5136366;27;20066;-74
2023/05/01 10:34:47;;;;;;;6.13;2.45;;;;;;;;;;5154880;27;20050;-75
2023/05/01 10:37:15;;;;;;;7.30;2.75;;;;;;;;;;5136864;27;20436;-73
2023/05/01 10:39:41;;;;;;;4.43;2.40;;;;;;;;;;5136516;27;20487;-75
2023/05/01 10:42:10;;;;;;;5.68;3.38;;;;;;;;;;5136172;27;20047;-75
2023/05/01 10:44:36;;;;;;;8.50;3.28;;;;;;;;;;5119187;27;20045;-74
2023/05/01 10:47:21;;;;;;;7.10;3.42;;;;;;;;;;5154640;27;20035;-74
2023/05/01 10:50:03;;;;;;;7.15;3.67;;;;;;;;;;5154627;27;20046;-74
2023/05/01 10:52:29;;;;;;;10.48;3.67;;;;;;;;;;5127278;27;20122;-73
2023/05/01 10:55:16;;;;;;;8.18;3.90;;;;;;;;;;5148825;27;20039;-73
2023/05/01 10:57:45;;;;;;;6.72;3.67;;;;;;;;;;5154473;27;20403;-73
2023/05/01 11:00:12;;;;;;;8.65;4.18;;;;;;;;;;5121188;27;20043;-76
2023/05/01 11:02:38;;;;;;;7.13;4.40;;;;;;;;;;5154667;27;20042;-76
2023/05/01 11:05:04;;;;;;;9.40;5.10;;;;;;;;;;5136252;27;20046;-73
2023/05/01 11:07:32;;;;;;;9.55;4.15;;;;;;;;;;5135617;27;20042;-73
2023/05/01 11:10:00;;;;;;;6.35;4.07;;;;;;;;;;5118853;27;20043;-73
2023/05/01 11:12:44;;;;;;;10.30;4.22;;;;;;;;;;5154000;27;20487;-73
2023/05/01 11:15:11;;;;;;;7.78;3.97;;;;;;;;;;5135846;27;20038;-75
2023/05/01 11:17:40;;;;;;;6.45;3.78;;;;;;;;;;5118924;27;20144;-73
2023/05/01 11:20:07;;;;;;;8.20;4.05;;;;;;;;;;5127516;27;20050;-73
2023/05/01 11:22:34;;;;;;;5.10;3.50;;;;;;;;;;5129532;27;20042;-74
2023/05/01 11:25:03;;;;;;;8.13;3.88;;;;;;;;;;5121673;27;20099;-73
2023/05/01 11:27:32;;;;;;;6.70;3.78;;;;;;;;;;5135199;27;20054;-73
2023/05/01 11:29:59;;;;;;;9.25;4.13;;;;;;;;;;5135477;27;20074;-73
2023/05/01 11:32:28;;;;;;;5.45;3.30;;;;;;;;;;5153603;27;20039;-73
2023/05/01 11:34:55;;;;;;;4.32;2.30;;;;;;;;;;5154017;27;20078;-74
2023/05/01 11:37:38;;;;;;;5.03;2.30;;;;;;;;;;5154147;27;20045;-74
2023/05/01 11:40:05;;;;;;;4.13;1.55;;;;;;;;;;5131117;28;20068;-75
2023/05/01 11:42:31;;;;;;;4.18;1.40;;;;;;;;;;5098090;28;20054;-75
2023/05/01 11:45:07;;;;;;;3.70;1.30;;;;;;;;;;5131924;27;20046;-75
2023/05/01 11:47:33;;;;;;;3.60;1.30;;;;;;;;;;5135729;27;20491;-75
2023/05/01 11:50:00;;;;;;;2.63;1.40;;;;;;;;;;5153633;27;20039;-75
2023/05/01 11:52:27;;;;;;;4.20;1.50;;;;;;;;;;5153857;27;20038;-73
2023/05/01 11:54:53;;;;;;;2.97;1.20;;;;;;;;;;5118352;27;20483;-74
2023/05/01 11:57:19;;;;;;;2.83;1.10;;;;;;;;;;5117924;27;20038;-74
2023/05/01 11:59:48;;;;;;;2.88;1.65;;;;;;;;;;5153755;27;20038;-73
2023/05/01 12:02:19;;;;;;;2.28;1.15;;;;;;;;;;5120589;27;20053;-74
2023/05/01 12:04:45;;;;;;;3.67;1.35;;;;;;;;;;5132125;28;20051;-74
2023/05/01 12:07:21;;;;;;;3.83;1.20;;;;;;;;;;5150154;27;20049;-75
2023/05/01 12:09:48;;;;;;;2.58;1.15;;;;;;;;;;5122389;27;20042;-75
2023/05/01 12:12:14;;;;;;;2.33;1.00;;;;;;;;;;5135235;27;20038;-73
2023/05/01 12:14:40;;;;;;;5.20;1.33;;;;;;;;;;5153972;27;20087;-73
2023/05/01 12:17:08;;;;;;;3.42;1.67;;;;;;;;;;5135696;27;20391;-75
2023/05/01 12:19:34;;;;;;;5.28;1.73;;;;;;;;;;5153480;27;20046;-73
2023/05/01 12:22:07;;;;;;;3.17;1.40;;;;;;;;;;5135769;27;20066;-75
2023/05/01 12:24:33;;;;;;;4.30;1.73;;;;;;;;;;5134887;27;20042;-74
2023/05/01 12:27:00;;;;;;;4.30;1.50;;;;;;;;;;5118301;27;20043;-73
2023/05/01 12:29:38;;;;;;;3.25;1.45;;;;;;;;;;5153065;27;20043;-73
2023/05/01 12:32:05;;;;;;;2.60;1.38;;;;;;;;;;5153858;27;20058;-74
2023/05/01 12:34:32;;;;;;;4.22;1.30;;;;;;;;;;5154188;27;20110;-73
2023/05/01 12:36:58;;;;;;;3.83;1.55;;;;;;;;;;5118517;27;20118;-74
2023/05/01 12:39:25;;;;;;;4.45;1.50;;;;;;;;;;5149794;27;20171;-74
2023/05/01 12:41:53;;;;;;;4.40;2.00;;;;;;;;;;5139153;27;20401;-75
2023/05/01 12:44:19;;;;;;;6.72;2.38;;;;;;;;;;5156790;27;20550;-73
2023/05/01 12:46:52;;;;;;;7.55;2.28;;;;;;;;;;5157102;27;20398;-74
2023/05/01 12:49:19;;;;;;;5.10;2.33;;;;;;;;;;5138841;27;20042;-74
2023/05/01 12:51:46;;;;;;;6.72;2.33;;;;;;;;;;5120995;27;20126;-72
2023/05/01 12:54:17;;;;;;;6.78;2.40;;;;;;;;;;5157710;27;20501;-73
2023/05/01 12:56:43;;;;;;;6.10;2.67;;;;;;;;;;5157534;27;20368;-73
2023/05/01 12:59:20;;;;;;;7.93;2.80;;;;;;;;;;5149656;27;20035;-73
2023/05/01 13:01:46;;;;;;;5.88;3.00;;;;;;;;;;5124054;27;20461;-74
2023/05/01 13:04:12;;;;;;;7.63;3.22;;;;;;;;;;5131426;27;20027;-75
2023/05/01 13:06:38;;;;;;;6.53;3.13;;;;;;;;;;5149791;27;20062;-74
2023/05/01 13:09:09;;;;;;;6.35;3.28;;;;;;;;;;5157125;27;20042;-73
2023/05/01 13:11:35;;;;;;;9.85;3.70;;;;;;;;;;5138342;27;20070;-73
2023/05/01 13:14:08;;;;;;;7.53;3.50;;;;;;;;;;5138729;27;20511;-74
2023/05/01 13:16:43;;;;;;;7.80;3.78;;;;;;;;;;5121135;27;20042;-73
2023/05/01 13:19:09;;;;;;;6.13;3.78;;;;;;;;;;5156985;27;20117;-74
2023/05/01 13:21:35;;;;;;;6.15;3.58;;;;;;;;;;5156692;27;20026;-73
2023/05/01 13:24:01;;;;;;;8.30;3.90;;;;;;;;;;5121562;27;20483;-73
2023/05/01 13:26:30;;;;;;;6.35;4.00;;;;;;;;;;5122365;27;20487;-73
2023/05/01 13:28:56;;;;;;;9.55;3.85;;;;;;;;;;5157963;27;20486;-74
2023/05/01 13:31:22;;;;;;;9.65;4.07;;;;;;;;;;5137778;27;20047;-73
2023/05/01 13:33:52;;;;;;;10.63;4.05;;;;;;;;;;5137357;27;20054;-74
2023/05/01 13:36:19;;;;;;;6.85;4.10;;;;;;;;;;5137573;27;20057;-75
2023/05/01 13:38:46;;;;;;;10.57;4.18;;;;;;;;;;5137598;27;20038;-74
2023/05/01 13:41:23;;;;;;;9.30;4.30;;;;;;;;;;5137587;27;20046;-73
2023/05/01 13:43:50;;;;;;;8.20;4.13;;;;;;;;;;5137547;27;20074;-74
2023/05/01 13:46:17;;;;;;;9.40;4.32;;;;;;;;;;5137404;27;20043;-75
2023/05/01 13:48:43;;;;;;;7.72;4.05;;;;;;;;;;5123084;27;20115;-73
2023/05/01 13:51:11;;;;;;;10.70;4.40;;;;;;;;;;5137401;27;20132;-73
2023/05/01 13:53:41;;;;;;;7.28;4.30;;;;;;;;;;5120228;27;20043;-73
2023/05/01 13:56:09;;;;;;;10.88;4.05;;;;;;;;;;5116955;27;20373;-73
2023/05/01 13:58:35;;;;;;;14.27;4.75;;;;;;;;;;5133449;27;20043;-75
2023/05/01 14:01:05;;;;;;;5.47;3.20;;;;;;;;;;5137123;27;20030;-74
2023/05/01 14:03:39;;;;;;;8.13;3.83;;;;;;;;;;5137105;27;20122;-73
2023/05/01 14:06:08;;;;;;;8.90;3.50;;;;;;;;;;5155729;27;20035;-74
2023/05/01 14:08:34;;;;;;;7.45;4.22;;;;;;;;;;5136845;27;20038;-73
2023/05/01 14:11:03;;;;;;;9.05;4.75;;;;;;;;;;5137073;27;20364;-74
2023/05/01 14:13:29;;;;;;;6.10;4.00;;;;;;;;;;5137428;27;20546;-73
2023/05/01 14:15:55;;;;;;;8.00;3.65;;;;;;;;;;5137008;27;20038;-75
2023/05/01 14:18:21;;;;;;;7.38;3.70;;;;;;;;;;5112310;27;20130;-73
2023/05/01 14:20:47;;;;;;;7.78;4.10;;;;;;;;;;5109504;27;20058;-75
2023/05/01 14:23:19;;;;;;;8.95;4.28;;;;;;;;;;5119375;27;20030;-74
2023/05/01 14:25:46;;;;;;;8.82;5.07;;;;;;;;;;5142090;27;20483;-73
2023/05/01 14:28:12;;;;;;;9.15;4.80;;;;;;;;;;5135068;27;20077;-73
2023/05/01 14:30:38;;;;;;;6.72;4.30;;;;;;;;;;5125268;27;20504;-74
2023/05/01 14:33:06;;;;;;;8.70;4.40;;;;;;;;;;5151593;27;20090;-74
2023/05/01 14:35:32;;;;;;;7.82;4.50;;;;;;;;;;5155035;27;20043;-73
2023/05/01 14:38:09;;;;;;;8.18;4.97;;;;;;;;;;5136439;27;20043;-74
2023/05/01 14:40:35;;;;;;;6.28;4.75;;;;;;;;;;5119212;27;20046;-75